Time;durP1;ratioP1;P1;durP2;ratioP2;P2;SDS_P1;SDS_P2;PMS_P1;PMS_P2;Temp;Humidity;BMP_temperature;BMP_pressure;BME280_temperature;BME280_humidity;BME280_pressure;Samples;Min_cycle;Max_cycle;Signal;HPM_P1;HPM_P2
2023/11/14 00:01:55;;;;;;;;;;;;;;;;;;5022153;28;20012;-57
2023/11/14 00:04:23;;;;;;;;;;;;;;;;;;5019939;28;19972;-56
2023/11/14 00:06:50;;;;;;;;;;;;;;;;;;5016942;28;20399;-57
2023/11/14 00:09:17;;;;;;;;;;;;;;;;;;5025930;28;19928;-57
2023/11/14 00:11:43;;;;;;;;;;;;;;;;;;5028432;28;19927;-57
2023/11/14 00:14:10;;;;;;;;;;;;;;;;;;5023833;28;20371;-56
2023/11/14 00:16:36;;;;;;;;;;;;;;;;;;5027231;28;20018;-57
2023/11/14 00:19:04;;;;;;;;;;;;;;;;;;5026754;28;19927;-57
2023/11/14 00:21:32;;;;;;;;;;;;;;;;;;5025481;28;19972;-57
2023/11/14 00:23:58;;;;;;;;;;;;;;;;;;5031178;28;20024;-57
2023/11/14 00:26:25;;;;;;;;;;;;;;;;;;5024310;28;20020;-57
2023/11/14 00:28:51;;;;;;;;;;;;;;;;;;5023311;28;20011;-57
2023/11/14 00:31:18;;;;;;;;;;;;;;;;;;5025862;28;19921;-57
2023/11/14 00:33:45;;;;;;;;;;;;;;;;;;5031306;28;19960;-57
2023/11/14 00:36:11;;;;;;;;;;;;;;;;;;5031062;28;20278;-58
2023/11/14 00:38:39;;;;;;;;;;;;;;;;;;5028663;28;20319;-56
2023/11/14 00:41:06;;;;;;;;;;;;;;;;;;5030724;28;19925;-58
2023/11/14 00:43:32;;;;;;;;;;;;;;;;;;5029719;28;19921;-56
2023/11/14 00:46:10;;;;;;;;;;;;;;;;;;5034365;28;19929;-56
2023/11/14 00:48:37;;;;;;;;;;;;;;;;;;5034090;28;19921;-58
2023/11/14 00:51:04;;;;;;;;;;;;;;;;;;5034214;28;20011;-57
2023/11/14 00:53:30;;;;;;;;;;;;;;;;;;5028482;28;19943;-53
2023/11/14 00:55:58;;;;;;;;;;;;;;;;;;5034310;28;20003;-56
2023/11/14 00:58:25;;;;;;;;;;;;;;;;;;5034096;28;20012;-57
2023/11/14 01:00:51;;;;;;;;;;;;;;;;;;5034394;28;20003;-57
2023/11/14 01:03:20;;;;;;;;;;;;;;;;;;5034469;28;19921;-58
2023/11/14 01:05:47;;;;;;;;;;;;;;;;;;5033922;28;19928;-61
2023/11/14 01:08:13;;;;;;;;;;;;;;;;;;5033676;28;19967;-57
2023/11/14 01:10:40;;;;;;;;;;;;;;;;;;5034018;28;19932;-56
2023/11/14 01:13:08;;;;;;;;;;;;;;;;;;5033809;28;20026;-59
2023/11/14 01:15:34;;;;;;;;;;;;;;;;;;5033018;28;19975;-58
2023/11/14 01:18:01;;;;;;;;;;;;;;;;;;5033792;28;19956;-58
2023/11/14 01:20:27;;;;;;;;;;;;;;;;;;5033263;28;20372;-58
2023/11/14 01:22:54;;;;;;;;;;;;;;;;;;5034057;28;19921;-57
2023/11/14 01:25:20;;;;;;;;;;;;;;;;;;5033604;28;19971;-58
2023/11/14 01:27:47;;;;;;;;;;;;;;;;;;5033695;28;19979;-57
2023/11/14 01:30:15;;;;;;;;;;;;;;;;;;5033418;28;20426;-60
2023/11/14 01:32:41;;;;;;;;;;;;;;;;;;5033533;28;19921;-58
2023/11/14 01:35:09;;;;;;;;;;;;;;;;;;5033352;28;19999;-57
2023/11/14 01:37:35;;;;;;;;;;;;;;;;;;5033564;28;19921;-56
2023/11/14 01:40:03;;;;;;;;;;;;;;;;;;5033288;28;19927;-58
2023/11/14 01:42:29;;;;;;;;;;;;;;;;;;5033430;28;19928;-56
2023/11/14 01:44:55;;;;;;;;;;;;;;;;;;5033019;28;19921;-56
2023/11/14 01:47:24;;;;;;;;;;;;;;;;;;5033060;28;20384;-59
2023/11/14 01:49:50;;;;;;;;;;;;;;;;;;5033037;28;19988;-59
2023/11/14 01:52:17;;;;;;;;;;;;;;;;;;5032950;28;19921;-59
2023/11/14 01:54:44;;;;;;;;;;;;;;;;;;5032688;28;20003;-58
2023/11/14 01:57:11;;;;;;;;;;;;;;;;;;5032845;28;20020;-57
2023/11/14 01:59:38;;;;;;;;;;;;;;;;;;5032797;28;19968;-57
2023/11/14 02:02:05;;;;;;;;;;;;;;;;;;5033088;28;20380;-57
2023/11/14 02:04:34;;;;;;;;;;;;;;;;;;5033113;28;19928;-58
2023/11/14 02:07:00;;;;;;;;;;;;;;;;;;5032800;28;20016;-58
2023/11/14 02:09:27;;;;;;;;;;;;;;;;;;5032578;28;20008;-57
2023/11/14 02:11:55;;;;;;;;;;;;;;;;;;5032814;28;20427;-59
2023/11/14 02:14:22;;;;;;;;;;;;;;;;;;5031641;28;19921;-58
2023/11/14 02:16:49;;;;;;;;;;;;;;;;;;5032743;28;20067;-55
2023/11/14 02:19:15;;;;;;;;;;;;;;;;;;5032420;28;20044;-56
2023/11/14 02:21:43;;;;;;;;;;;;;;;;;;5032805;28;20293;-57
2023/11/14 02:24:15;;;;;;;;;;;;;;;;;;5032579;28;20361;-54
2023/11/14 02:26:44;;;;;;;;;;;;;;;;;;5032456;28;20091;-54
2023/11/14 02:29:13;;;;;;;;;;;;;;;;;;5031592;28;20024;-55
2023/11/14 02:31:40;;;;;;;;;;;;;;;;;;5032050;28;19932;-58
2023/11/14 02:34:06;;;;;;;;;;;;;;;;;;5032337;28;20345;-58
2023/11/14 02:36:33;;;;;;;;;;;;;;;;;;5032300;28;19920;-57
2023/11/14 02:38:59;;;;;;;;;;;;;;;;;;5032142;28;19921;-56
2023/11/14 02:41:27;;;;;;;;;;;;;;;;;;5032178;28;19976;-57
2023/11/14 02:43:57;;;;;;;;;;;;;;;;;;5031793;28;19921;-58
2023/11/14 02:46:23;;;;;;;;;;;;;;;;;;5032408;28;19921;-57
2023/11/14 02:48:50;;;;;;;;;;;;;;;;;;5031957;28;20024;-58
2023/11/14 02:51:16;;;;;;;;;;;;;;;;;;5032172;28;19921;-58
2023/11/14 02:53:43;;;;;;;;;;;;;;;;;;5032116;28;19995;-60
2023/11/14 02:56:09;;;;;;;;;;;;;;;;;;5031907;28;19925;-58
2023/11/14 02:58:36;;;;;;;;;;;;;;;;;;5031984;28;20388;-56
2023/11/14 03:01:04;;;;;;;;;;;;;;;;;;5032149;28;19952;-58
2023/11/14 03:03:30;;;;;;;;;;;;;;;;;;5031706;28;19925;-57
2023/11/14 03:05:59;;;;;;;;;;;;;;;;;;5031174;28;19921;-56
2023/11/14 03:08:26;;;;;;;;;;;;;;;;;;5031373;28;20006;-59
2023/11/14 03:10:53;;;;;;;;;;;;;;;;;;5032148;28;19924;-59
2023/11/14 03:13:19;;;;;;;;;;;;;;;;;;5031188;28;19930;-57
2023/11/14 03:15:46;;;;;;;;;;;;;;;;;;5031654;28;19979;-56
2023/11/14 03:18:14;;;;;;;;;;;;;;;;;;5031766;28;19979;-57
2023/11/14 03:20:40;;;;;;;;;;;;;;;;;;5031806;28;19971;-59
2023/11/14 03:23:07;;;;;;;;;;;;;;;;;;5031435;28;20347;-60
2023/11/14 03:25:33;;;;;;;;;;;;;;;;;;5031588;28;19925;-59
2023/11/14 03:28:01;;;;;;;;;;;;;;;;;;5031816;28;19928;-57
2023/11/14 03:30:27;;;;;;;;;;;;;;;;;;5031581;28;19967;-60
2023/11/14 03:32:54;;;;;;;;;;;;;;;;;;5031721;28;20007;-57
2023/11/14 03:35:22;;;;;;;;;;;;;;;;;;5031536;28;19972;-58
2023/11/14 03:37:48;;;;;;;;;;;;;;;;;;5031331;28;20008;-56
2023/11/14 03:40:15;;;;;;;;;;;;;;;;;;5031519;28;19975;-56
2023/11/14 03:42:41;;;;;;;;;;;;;;;;;;5031791;28;19956;-58
2023/11/14 03:45:08;;;;;;;;;;;;;;;;;;5030975;28;19921;-60
2023/11/14 03:47:34;;;;;;;;;;;;;;;;;;5031607;28;19936;-58
2023/11/14 03:50:03;;;;;;;;;;;;;;;;;;5031551;28;19931;-58
2023/11/14 03:52:31;;;;;;;;;;;;;;;;;;5031389;28;20388;-60
2023/11/14 03:54:58;;;;;;;;;;;;;;;;;;5031489;28;19991;-55
2023/11/14 03:57:24;;;;;;;;;;;;;;;;;;5031446;28;19965;-58
2023/11/14 03:59:50;;;;;;;;;;;;;;;;;;5031118;28;19995;-58
2023/11/14 04:02:17;;;;;;;;;;;;;;;;;;5031410;28;19932;-59
2023/11/14 04:04:43;;;;;;;;;;;;;;;;;;5031308;28;19927;-58
2023/11/14 04:07:10;;;;;;;;;;;;;;;;;;5031475;28;19921;-56
2023/11/14 04:09:39;;;;;;;;;;;;;;;;;;5031230;28;19921;-57
2023/11/14 04:12:06;;;;;;;;;;;;;;;;;;5031125;28;19921;-57
2023/11/14 04:14:32;;;;;;;;;;;;;;;;;;5023393;28;20302;-56
2023/11/14 04:16:59;;;;;;;;;;;;;;;;;;5031343;28;20360;-57
2023/11/14 04:19:25;;;;;;;;;;;;;;;;;;5035159;28;19921;-58
2023/11/14 04:21:52;;;;;;;;;;;;;;;;;;5034998;28;20304;-57
2023/11/14 04:24:18;;;;;;;;;;;;;;;;;;5034662;28;20449;-57
2023/11/14 04:26:46;;;;;;;;;;;;;;;;;;5034086;28;20007;-60
2023/11/14 04:29:13;;;;;;;;;;;;;;;;;;5034834;28;20487;-56
2023/11/14 04:31:39;;;;;;;;;;;;;;;;;;5034933;28;20340;-58
2023/11/14 04:34:07;;;;;;;;;;;;;;;;;;5034556;28;20340;-57
2023/11/14 04:36:34;;;;;;;;;;;;;;;;;;5026582;28;20323;-59
2023/11/14 04:39:01;;;;;;;;;;;;;;;;;;5034816;28;19921;-59
2023/11/14 04:41:27;;;;;;;;;;;;;;;;;;5030797;28;20309;-57
2023/11/14 04:43:55;;;;;;;;;;;;;;;;;;5033728;28;19921;-57
2023/11/14 04:46:22;;;;;;;;;;;;;;;;;;5034248;28;20336;-57
2023/11/14 04:48:49;;;;;;;;;;;;;;;;;;5034526;28;19925;-58
2023/11/14 04:51:15;;;;;;;;;;;;;;;;;;5034506;28;19976;-57
2023/11/14 04:53:42;;;;;;;;;;;;;;;;;;5034606;28;19960;-55
2023/11/14 04:56:08;;;;;;;;;;;;;;;;;;5033941;28;20396;-57
2023/11/14 04:58:35;;;;;;;;;;;;;;;;;;5034186;28;20031;-58
2023/11/14 05:01:03;;;;;;;;;;;;;;;;;;5034205;28;19925;-56
2023/11/14 05:03:30;;;;;;;;;;;;;;;;;;5033858;28;20273;-58
2023/11/14 05:05:56;;;;;;;;;;;;;;;;;;5034178;28;19921;-57
2023/11/14 05:08:23;;;;;;;;;;;;;;;;;;5034153;28;20452;-58
2023/11/14 05:10:49;;;;;;;;;;;;;;;;;;5033943;28;20332;-58
2023/11/14 05:13:16;;;;;;;;;;;;;;;;;;5033786;28;19921;-58
2023/11/14 05:15:42;;;;;;;;;;;;;;;;;;5033576;28;20467;-57
2023/11/14 05:18:10;;;;;;;;;;;;;;;;;;5033873;28;19964;-57
2023/11/14 05:20:36;;;;;;;;;;;;;;;;;;5034099;28;19927;-59
2023/11/14 05:23:03;;;;;;;;;;;;;;;;;;5033859;28;20000;-57
2023/11/14 05:25:30;;;;;;;;;;;;;;;;;;5033216;28;19967;-56
2023/11/14 05:27:56;;;;;;;;;;;;;;;;;;5033759;28;19968;-59
2023/11/14 05:30:23;;;;;;;;;;;;;;;;;;5032263;28;20011;-57
2023/11/14 05:32:49;;;;;;;;;;;;;;;;;;5033662;28;20295;-57
2023/11/14 05:35:17;;;;;;;;;;;;;;;;;;5033401;28;20419;-54
2023/11/14 05:37:44;;;;;;;;;;;;;;;;;;5033251;28;19927;-54
2023/11/14 05:40:12;;;;;;;;;;;;;;;;;;5033443;28;19921;-57
2023/11/14 05:42:38;;;;;;;;;;;;;;;;;;5033378;28;20289;-56
2023/11/14 05:45:06;;;;;;;;;;;;;;;;;;5033552;28;20020;-59
2023/11/14 05:47:32;;;;;;;;;;;;;;;;;;5033570;28;19921;-57
2023/11/14 05:49:59;;;;;;;;;;;;;;;;;;5033478;28;20003;-56
2023/11/14 05:52:27;;;;;;;;;;;;;;;;;;5033255;28;20009;-59
2023/11/14 05:54:53;;;;;;;;;;;;;;;;;;5033241;28;19921;-57
2023/11/14 05:57:20;;;;;;;;;;;;;;;;;;5032758;28;20583;-57
2023/11/14 05:59:49;;;;;;;;;;;;;;;;;;5033390;28;19921;-57
2023/11/14 06:02:16;;;;;;;;;;;;;;;;;;5033383;28;20201;-57
2023/11/14 06:04:42;;;;;;;;;;;;;;;;;;5033294;28;20004;-58
2023/11/14 06:07:09;;;;;;;;;;;;;;;;;;5033068;28;19972;-55
2023/11/14 06:09:37;;;;;;;;;;;;;;;;;;5033643;28;20019;-58
2023/11/14 06:12:04;;;;;;;;;;;;;;;;;;5033475;28;20007;-57
2023/11/14 06:14:30;;;;;;;;;;;;;;;;;;5033479;28;20285;-53
2023/11/14 06:16:57;;;;;;;;;;;;;;;;;;5033100;28;20446;-55
2023/11/14 06:19:23;;;;;;;;;;;;;;;;;;5033232;28;19944;-59
2023/11/14 06:21:50;;;;;;;;;;;;;;;;;;5033184;28;20392;-54
2023/11/14 06:24:16;;;;;;;;;;;;;;;;;;5032943;28;20412;-54
2023/11/14 06:26:44;;;;;;;;;;;;;;;;;;5032865;28;19964;-53
2023/11/14 06:29:11;;;;;;;;;;;;;;;;;;5033467;28;19921;-54
2023/11/14 06:31:37;;;;;;;;;;;;;;;;;;5032890;28;19921;-59
2023/11/14 06:34:04;;;;;;;;;;;;;;;;;;5033055;28;19944;-59
2023/11/14 06:36:31;;;;;;;;;;;;;;;;;;5032857;28;20300;-57
2023/11/14 06:38:57;;;;;;;;;;;;;;;;;;5032714;28;20023;-57
2023/11/14 06:41:24;;;;;;;;;;;;;;;;;;5032027;28;20008;-57
2023/11/14 06:43:52;;;;;;;;;;;;;;;;;;5032263;28;19968;-57
2023/11/14 06:46:18;;;;;;;;;;;;;;;;;;5031148;28;20019;-58
2023/11/14 06:48:44;;;;;;;;;;;;;;;;;;5030789;28;19927;-56
2023/11/14 06:51:11;;;;;;;;;;;;;;;;;;5032195;28;19943;-57
2023/11/14 06:53:38;;;;;;;;;;;;;;;;;;5032237;28;19944;-57
2023/11/14 06:56:04;;;;;;;;;;;;;;;;;;5032267;28;19921;-56
2023/11/14 06:58:33;;;;;;;;;;;;;;;;;;5032133;28;19957;-55
2023/11/14 07:01:02;;;;;;;;;;;;;;;;;;5032496;28;19921;-57
2023/11/14 07:03:31;;;;;;;;;;;;;;;;;;5032356;28;20016;-53
2023/11/14 07:05:57;;;;;;;;;;;;;;;;;;5032458;28;19921;-56
2023/11/14 07:08:23;;;;;;;;;;;;;;;;;;5032542;28;19956;-58
2023/11/14 07:10:50;;;;;;;;;;;;;;;;;;5032436;28;20354;-56
2023/11/14 07:13:18;;;;;;;;;;;;;;;;;;5031747;28;20012;-59
2023/11/14 07:15:44;;;;;;;;;;;;;;;;;;5031863;28;19925;-58
2023/11/14 07:18:12;;;;;;;;;;;;;;;;;;5031394;28;19967;-58
2023/11/14 07:20:38;;;;;;;;;;;;;;;;;;5031461;28;19921;-59
2023/11/14 07:23:05;;;;;;;;;;;;;;;;;;5032292;28;19921;-58
2023/11/14 07:25:34;;;;;;;;;;;;;;;;;;5031487;28;20011;-57
2023/11/14 07:28:02;;;;;;;;;;;;;;;;;;5031707;28;19951;-59
2023/11/14 07:30:30;;;;;;;;;;;;;;;;;;5030638;28;19925;-57
2023/11/14 07:32:57;;;;;;;;;;;;;;;;;;5032408;28;19975;-57
2023/11/14 07:35:26;;;;;;;;;;;;;;;;;;5031845;28;20400;-57
2023/11/14 07:37:53;;;;;;;;;;;;;;;;;;5032133;28;19975;-59
2023/11/14 07:40:20;;;;;;;;;;;;;;;;;;5022799;28;19967;-59
2023/11/14 07:42:46;;;;;;;;;;;;;;;;;;5022394;28;19921;-55
2023/11/14 07:45:13;;;;;;;;;;;;;;;;;;5024816;28;19925;-54
2023/11/14 07:47:39;;;;;;;;;;;;;;;;;;5024050;28;19929;-58
2023/11/14 07:50:06;;;;;;;;;;;;;;;;;;5023572;28;20399;-57
2023/11/14 07:52:34;;;;;;;;;;;;;;;;;;5029303;28;20024;-59
2023/11/14 07:55:02;;;;;;;;;;;;;;;;;;5031100;28;20024;-56
2023/11/14 07:57:29;;;;;;;;;;;;;;;;;;5032302;28;19925;-58
2023/11/14 07:59:56;;;;;;;;;;;;;;;;;;5033215;28;20422;-58
2023/11/14 08:02:22;;;;;;;;;;;;;;;;;;5028028;28;19944;-56
2023/11/14 08:04:52;;;;;;;;;;;;;;;;;;5026591;28;20366;-57
2023/11/14 08:07:18;;;;;;;;;;;;;;;;;;5034474;28;19928;-59
2023/11/14 08:09:47;;;;;;;;;;;;;;;;;;5032047;28;19921;-57
2023/11/14 08:12:13;;;;;;;;;;;;;;;;;;5031857;28;19944;-57
2023/11/14 08:14:40;;;;;;;;;;;;;;;;;;5035561;28;20012;-58
2023/11/14 08:17:06;;;;;;;;;;;;;;;;;;5028149;28;19925;-57
2023/11/14 08:19:33;;;;;;;;;;;;;;;;;;5028804;28;20015;-58
2023/11/14 08:22:04;;;;;;;;;;;;;;;;;;5023194;28;20004;-57
2023/11/14 08:24:31;;;;;;;;;;;;;;;;;;5027857;28;20447;-56
2023/11/14 08:26:59;;;;;;;;;;;;;;;;;;5033277;28;19921;-58
2023/11/14 08:29:25;;;;;;;;;;;;;;;;;;5033047;28;20419;-61
2023/11/14 08:31:51;;;;;;;;;;;;;;;;;;5021627;28;20004;-58
2023/11/14 08:34:19;;;;;;;;;;;;;;;;;;5029878;28;19944;-58
2023/11/14 08:36:46;;;;;;;;;;;;;;;;;;5030707;28;19941;-56
2023/11/14 08:39:13;;;;;;;;;;;;;;;;;;5024831;28;19928;-56
2023/11/14 08:41:40;;;;;;;;;;;;;;;;;;5028240;28;19928;-59
2023/11/14 08:44:08;;;;;;;;;;;;;;;;;;5029569;28;20327;-58
2023/11/14 08:46:34;;;;;;;;;;;;;;;;;;5027484;28;19947;-57
2023/11/14 08:49:02;;;;;;;;;;;;;;;;;;5027219;28;20327;-57
2023/11/14 08:51:28;;;;;;;;;;;;;;;;;;5026787;28;20023;-60
2023/11/14 08:53:55;;;;;;;;;;;;;;;;;;5027334;28;20372;-59
2023/11/14 08:56:22;;;;;;;;;;;;;;;;;;5024067;28;19952;-59
2023/11/14 08:58:48;;;;;;;;;;;;;;;;;;5031094;28;19921;-61
2023/11/14 09:01:16;;;;;;;;;;;;;;;;;;5032615;28;19948;-59
2023/11/14 09:03:44;;;;;;;;;;;;;;;;;;5029523;28;19921;-58
2023/11/14 09:06:10;;;;;;;;;;;;;;;;;;5022227;28;19944;-58
2023/11/14 09:08:37;;;;;;;;;;;;;;;;;;5025798;28;19932;-58
2023/11/14 09:11:04;;;;;;;;;;;;;;;;;;5029381;28;19921;-57
2023/11/14 09:13:30;;;;;;;;;;;;;;;;;;5026863;28;20380;-58
2023/11/14 09:15:57;;;;;;;;;;;;;;;;;;5029596;28;20368;-58
2023/11/14 09:18:25;;;;;;;;;;;;;;;;;;5028089;28;19921;-60
2023/11/14 09:20:51;;;;;;;;;;;;;;;;;;5025435;28;19979;-59
2023/11/14 09:23:18;;;;;;;;;;;;;;;;;;5027461;28;19931;-59
2023/11/14 09:25:44;;;;;;;;;;;;;;;;;;5031474;28;19925;-58
2023/11/14 09:28:11;;;;;;;;;;;;;;;;;;5032061;28;20095;-57
2023/11/14 09:30:37;;;;;;;;;;;;;;;;;;5032068;28;20296;-57
2023/11/14 09:33:05;;;;;;;;;;;;;;;;;;5031824;28;19962;-60
2023/11/14 09:35:32;;;;;;;;;;;;;;;;;;5031927;28;20269;-59
2023/11/14 09:37:59;;;;;;;;;;;;;;;;;;5026023;28;19921;-57
2023/11/14 09:40:26;;;;;;;;;;;;;;;;;;5031359;28;19925;-57
2023/11/14 09:42:53;;;;;;;;;;;;;;;;;;5027683;28;19933;-62
2023/11/14 09:45:20;;;;;;;;;;;;;;;;;;5030563;28;21246;-56
2023/11/14 09:47:46;;;;;;;;;;;;;;;;;;5029972;28;20389;-60
2023/11/14 09:50:13;;;;;;;;;;;;;;;;;;5028194;28;19927;-56
2023/11/14 09:52:42;;;;;;;;;;;;;;;;;;5030901;28;19920;-58
2023/11/14 09:55:11;;;;;;;;;;;;;;;;;;5030724;28;20311;-60
2023/11/14 09:57:37;;;;;;;;;;;;;;;;;;5028371;28;20424;-59
2023/11/14 10:00:07;;;;;;;;;;;;;;;;;;5031156;28;19928;-62
2023/11/14 10:02:33;;;;;;;;;;;;;;;;;;5030534;28;19921;-57
2023/11/14 10:05:00;;;;;;;;;;;;;;;;;;5031114;28;19921;-58
2023/11/14 10:07:27;;;;;;;;;;;;;;;;;;5030572;28;20350;-57
2023/11/14 10:09:55;;;;;;;;;;;;;;;;;;5029917;28;20373;-60
2023/11/14 10:12:34;;;;;;;;;;;;;;;;;;5030853;28;20283;-59
2023/11/14 10:15:01;;;;;;;;;;;;;;;;;;5031024;28;19921;-57
2023/11/14 10:17:39;;;;;;;;;;;;;;;;;;5031928;28;20335;-55
2023/11/14 10:20:07;;;;;;;;;;;;;;;;;;5031435;28;20011;-56
2023/11/14 10:22:35;;;;;;;;;;;;;;;;;;5031242;28;19967;-57
2023/11/14 10:25:03;;;;;;;;;;;;;;;;;;5030368;28;19975;-57
2023/11/14 10:27:33;;;;;;;;;;;;;;;;;;5030103;28;20043;-56
2023/11/14 10:29:59;;;;;;;;;;;;;;;;;;5026576;28;19972;-57
2023/11/14 10:32:26;;;;;;;;;;;;;;;;;;5030816;28;20411;-58
2023/11/14 10:34:52;;;;;;;;;;;;;;;;;;5030617;28;19927;-61
2023/11/14 10:37:32;;;;;;;;;;;;;;;;;;5030485;28;20388;-55
2023/11/14 10:39:59;;;;;;;;;;;;;;;;;;5030844;28;19921;-56
2023/11/14 10:42:27;;;;;;;;;;;;;;;;;;5030667;28;19944;-57
2023/11/14 10:45:00;;;;;;;;;;;;;;;;;;5030510;28;20431;-54
2023/11/14 10:47:40;;;;;;;;;;;;;;;;;;5030806;28;19925;-56
2023/11/14 10:50:08;;;;;;;;;;;;;;;;;;5030967;28;20311;-54
2023/11/14 10:52:35;;;;;;;;;;;;;;;;;;5022945;28;20422;-58
2023/11/14 10:55:05;;;;;;;;;;;;;;;;;;5030507;28;19927;-56
2023/11/14 10:57:33;;;;;;;;;;;;;;;;;;5029425;28;19921;-57
2023/11/14 11:00:02;;;;;;;;;;;;;;;;;;5029469;28;19948;-60
2023/11/14 11:02:32;;;;;;;;;;;;;;;;;;5029364;28;20015;-59
2023/11/14 11:05:00;;;;;;;;;;;;;;;;;;5028580;28;19975;-58
2023/11/14 11:07:28;;;;;;;;;;;;;;;;;;5028571;28;20380;-56
2023/11/14 11:09:55;;;;;;;;;;;;;;;;;;5028185;28;19952;-59
2023/11/14 11:12:22;;;;;;;;;;;;;;;;;;5028413;28;20307;-57
2023/11/14 11:14:50;;;;;;;;;;;;;;;;;;5026801;28;19921;-58
2023/11/14 11:17:31;;;;;;;;;;;;;;;;;;5029561;28;20019;-59
2023/11/14 11:19:57;;;;;;;;;;;;;;;;;;5029047;28;19925;-59
2023/11/14 11:22:24;;;;;;;;;;;;;;;;;;5028613;28;20245;-57
2023/11/14 11:25:09;;;;;;;;;;;;;;;;;;5029053;28;20428;-56
2023/11/14 11:27:41;;;;;;;;;;;;;;;;;;5027254;28;20394;-57
2023/11/14 11:30:12;;;;;;;;;;;;;;;;;;5028909;28;20012;-58
2023/11/14 11:32:40;;;;;;;;;;;;;;;;;;5028571;28;19959;-59
2023/11/14 11:35:26;;;;;;;;;;;;;;;;;;5027901;28;19925;-60
2023/11/14 11:37:53;;;;;;;;;;;;;;;;;;5027587;28;19921;-57
2023/11/14 11:40:25;;;;;;;;;;;;;;;;;;5029706;28;19932;-59
2023/11/14 11:42:51;;;;;;;;;;;;;;;;;;5030105;28;19921;-58
2023/11/14 11:45:35;;;;;;;;;;;;;;;;;;5027383;28;20154;-57
2023/11/14 11:48:03;;;;;;;;;;;;;;;;;;5025104;28;20382;-59
2023/11/14 11:50:31;;;;;;;;;;;;;;;;;;5027186;28;20426;-56
2023/11/14 11:53:01;;;;;;;;;;;;;;;;;;5023653;28;19933;-58
2023/11/14 11:55:28;;;;;;;;;;;;;;;;;;5023410;28;20192;-58
2023/11/14 11:57:58;;;;;;;;;;;;;;;;;;5027256;28;19924;-58
2023/11/14 12:00:25;;;;;;;;;;;;;;;;;;5029449;28;19921;-57
2023/11/14 12:02:52;;;;;;;;;;;;;;;;;;5025815;28;19929;-56
2023/11/14 12:05:21;;;;;;;;;;;;;;;;;;5026996;28;20407;-57
2023/11/14 12:07:48;;;;;;;;;;;;;;;;;;5031124;28;20015;-59
2023/11/14 12:10:18;;;;;;;;;;;;;;;;;;5029578;28;20594;-56
2023/11/14 12:12:45;;;;;;;;;;;;;;;;;;5029560;28;19943;-59
2023/11/14 12:15:15;;;;;;;;;;;;;;;;;;5028371;28;19963;-58
2023/11/14 12:17:46;;;;;;;;;;;;;;;;;;5029525;28;19931;-57
2023/11/14 12:20:12;;;;;;;;;;;;;;;;;;5029928;28;19921;-58
2023/11/14 12:22:40;;;;;;;;;;;;;;;;;;5025837;28;20307;-62
2023/11/14 12:25:07;;;;;;;;;;;;;;;;;;5028306;28;20407;-66
2023/11/14 12:27:34;;;;;;;;;;;;;;;;;;5024175;28;19943;-57
2023/11/14 12:30:08;;;;;;;;;;;;;;;;;;5029006;28;19921;-60
2023/11/14 12:32:35;;;;;;;;;;;;;;;;;;5029475;28;19921;-60
2023/11/14 12:35:01;;;;;;;;;;;;;;;;;;5025639;28;19933;-58
2023/11/14 12:37:28;;;;;;;;;;;;;;;;;;5027696;28;19929;-57
2023/11/14 12:40:06;;;;;;;;;;;;;;;;;;5032810;28;19949;-59
2023/11/14 12:42:36;;;;;;;;;;;;;;;;;;5031209;28;20434;-57
2023/11/14 12:45:04;;;;;;;;;;;;;;;;;;5030984;28;20441;-56
2023/11/14 12:47:32;;;;;;;;;;;;;;;;;;5031057;28;20291;-60
2023/11/14 12:50:00;;;;;;;;;;;;;;;;;;5032386;28;19928;-56
2023/11/14 12:52:27;;;;;;;;;;;;;;;;;;5027664;28;19921;-59
2023/11/14 12:54:54;;;;;;;;;;;;;;;;;;5028633;28;19952;-59
2023/11/14 12:57:21;;;;;;;;;;;;;;;;;;5024986;28;19921;-57
2023/11/14 12:59:49;;;;;;;;;;;;;;;;;;5030748;28;20000;-58
2023/11/14 13:02:16;;;;;;;;;;;;;;;;;;5026453;28;20300;-60
2023/11/14 13:04:43;;;;;;;;;;;;;;;;;;5026161;28;19933;-57
2023/11/14 13:07:09;;;;;;;;;;;;;;;;;;5027943;28;19921;-55
2023/11/14 13:09:35;;;;;;;;;;;;;;;;;;5027662;28;19921;-59
2023/11/14 13:12:03;;;;;;;;;;;;;;;;;;5028908;28;19967;-64
2023/11/14 13:14:30;;;;;;;;;;;;;;;;;;5032239;28;19921;-58
2023/11/14 13:16:57;;;;;;;;;;;;;;;;;;5031169;28;19921;-60
2023/11/14 13:19:23;;;;;;;;;;;;;;;;;;5030011;28;19921;-56
2023/11/14 13:21:50;;;;;;;;;;;;;;;;;;5028962;28;19920;-57
2023/11/14 13:24:17;;;;;;;;;;;;;;;;;;5031968;28;19921;-54
2023/11/14 13:26:43;;;;;;;;;;;;;;;;;;5028836;28;20390;-60
2023/11/14 13:29:10;;;;;;;;;;;;;;;;;;5030234;28;19931;-61
2023/11/14 13:31:37;;;;;;;;;;;;;;;;;;5029056;28;19921;-58
2023/11/14 13:34:04;;;;;;;;;;;;;;;;;;5028778;28;19951;-57
2023/11/14 13:36:31;;;;;;;;;;;;;;;;;;5027134;28;20016;-59
2023/11/14 13:38:58;;;;;;;;;;;;;;;;;;5032397;28;20000;-61
2023/11/14 13:41:25;;;;;;;;;;;;;;;;;;5032702;28;19921;-61
2023/11/14 13:43:52;;;;;;;;;;;;;;;;;;5025575;28;19974;-60
2023/11/14 13:46:19;;;;;;;;;;;;;;;;;;5024442;28;19947;-60
2023/11/14 13:48:47;;;;;;;;;;;;;;;;;;5024185;28;19921;-59
2023/11/14 13:51:13;;;;;;;;;;;;;;;;;;5025649;28;20377;-59
2023/11/14 13:53:40;;;;;;;;;;;;;;;;;;5028466;28;19921;-60
2023/11/14 13:56:07;;;;;;;;;;;;;;;;;;5031906;28;19921;-62
2023/11/14 13:58:35;;;;;;;;;;;;;;;;;;5032150;28;19947;-60
2023/11/14 14:01:02;;;;;;;;;;;;;;;;;;5027783;28;20301;-60
2023/11/14 14:03:28;;;;;;;;;;;;;;;;;;5024449;28;19928;-60
2023/11/14 14:05:57;;;;;;;;;;;;;;;;;;5026310;28;20307;-60
2023/11/14 14:08:23;;;;;;;;;;;;;;;;;;5032181;28;20238;-61
2023/11/14 14:10:50;;;;;;;;;;;;;;;;;;5029947;28;19999;-61
2023/11/14 14:13:20;;;;;;;;;;;;;;;;;;5027922;28;19927;-60
2023/11/14 14:15:46;;;;;;;;;;;;;;;;;;5027536;28;19929;-61
2023/11/14 14:18:13;;;;;;;;;;;;;;;;;;5027468;28;19944;-60
2023/11/14 14:20:40;;;;;;;;;;;;;;;;;;5029112;28;19936;-61
2023/11/14 14:23:08;;;;;;;;;;;;;;;;;;5031687;28;19928;-61
2023/11/14 14:25:35;;;;;;;;;;;;;;;;;;5031436;28;19927;-62
2023/11/14 14:28:02;;;;;;;;;;;;;;;;;;5031473;28;20442;-61
2023/11/14 14:30:28;;;;;;;;;;;;;;;;;;5028707;28;20343;-61
2023/11/14 14:32:54;;;;;;;;;;;;;;;;;;5031010;28;19927;-61
2023/11/14 14:35:21;;;;;;;;;;;;;;;;;;5031583;28;19921;-60
2023/11/14 14:37:47;;;;;;;;;;;;;;;;;;5031277;28;19925;-60
2023/11/14 14:40:17;;;;;;;;;;;;;;;;;;5030200;28;20402;-61
2023/11/14 14:42:44;;;;;;;;;;;;;;;;;;5030788;28;19937;-60
2023/11/14 14:45:11;;;;;;;;;;;;;;;;;;5026408;28;19940;-60
2023/11/14 14:47:38;;;;;;;;;;;;;;;;;;5029845;28;19928;-60
2023/11/14 14:50:05;;;;;;;;;;;;;;;;;;5029052;28;19958;-56
2023/11/14 14:52:32;;;;;;;;;;;;;;;;;;5026813;28;20028;-60
2023/11/14 14:54:58;;;;;;;;;;;;;;;;;;5030243;28;19921;-59
2023/11/14 14:57:27;;;;;;;;;;;;;;;;;;5031304;28;19925;-61
2023/11/14 14:59:53;;;;;;;;;;;;;;;;;;5031379;28;20444;-59
2023/11/14 15:02:21;;;;;;;;;;;;;;;;;;5030018;28;20020;-60
2023/11/14 15:04:47;;;;;;;;;;;;;;;;;;5029656;28;20012;-60
2023/11/14 15:07:14;;;;;;;;;;;;;;;;;;5030356;28;19959;-61
2023/11/14 15:09:42;;;;;;;;;;;;;;;;;;5024919;28;19924;-61
2023/11/14 15:12:10;;;;;;;;;;;;;;;;;;5026041;28;19921;-61
2023/11/14 15:14:38;;;;;;;;;;;;;;;;;;5026358;28;20003;-61
2023/11/14 15:17:05;;;;;;;;;;;;;;;;;;5030403;28;19925;-60
2023/11/14 15:19:32;;;;;;;;;;;;;;;;;;5025126;28;19929;-62
2023/11/14 15:21:59;;;;;;;;;;;;;;;;;;5030071;28;19921;-60
2023/11/14 15:24:25;;;;;;;;;;;;;;;;;;5026494;28;19943;-62
2023/11/14 15:26:52;;;;;;;;;;;;;;;;;;5024268;28;19921;-62
2023/11/14 15:29:18;;;;;;;;;;;;;;;;;;5030573;28;19921;-61
2023/11/14 15:31:46;;;;;;;;;;;;;;;;;;5030143;28;20237;-61
2023/11/14 15:34:12;;;;;;;;;;;;;;;;;;5026871;28;19921;-62
2023/11/14 15:36:39;;;;;;;;;;;;;;;;;;5024411;28;19927;-59
2023/11/14 15:39:08;;;;;;;;;;;;;;;;;;5026598;28;20016;-61
2023/11/14 15:41:35;;;;;;;;;;;;;;;;;;5020537;28;19925;-61
2023/11/14 15:44:01;;;;;;;;;;;;;;;;;;5021780;28;19965;-61
2023/11/14 15:46:28;;;;;;;;;;;;;;;;;;5021788;28;19928;-61
2023/11/14 15:48:56;;;;;;;;;;;;;;;;;;5025845;28;20527;-61
2023/11/14 15:51:25;;;;;;;;;;;;;;;;;;5027962;28;20493;-62
2023/11/14 15:53:52;;;;;;;;;;;;;;;;;;5026720;28;19921;-60
2023/11/14 15:56:19;;;;;;;;;;;;;;;;;;5029615;28;19928;-61
2023/11/14 15:58:46;;;;;;;;;;;;;;;;;;5029936;28;19924;-60
2023/11/14 16:01:13;;;;;;;;;;;;;;;;;;5030114;28;19928;-60
2023/11/14 16:03:39;;;;;;;;;;;;;;;;;;5027969;28;19924;-61
2023/11/14 16:06:08;;;;;;;;;;;;;;;;;;5023593;28;19972;-62
2023/11/14 16:08:34;;;;;;;;;;;;;;;;;;5026544;28;19929;-60
2023/11/14 16:11:01;;;;;;;;;;;;;;;;;;5029875;28;19932;-61
2023/11/14 16:13:27;;;;;;;;;;;;;;;;;;5030868;28;20456;-61
2023/11/14 16:15:53;;;;;;;;;;;;;;;;;;5030486;28;20012;-61
2023/11/14 16:18:20;;;;;;;;;;;;;;;;;;5028447;28;20027;-59
2023/11/14 16:20:47;;;;;;;;;;;;;;;;;;5032673;28;19929;-61
2023/11/14 16:23:15;;;;;;;;;;;;;;;;;;5033465;28;19927;-59
2023/11/14 16:25:42;;;;;;;;;;;;;;;;;;5033499;28;20023;-59
2023/11/14 16:28:09;;;;;;;;;;;;;;;;;;5033378;28;20395;-62
2023/11/14 16:30:35;;;;;;;;;;;;;;;;;;5026882;28;20577;-60
2023/11/14 16:33:02;;;;;;;;;;;;;;;;;;5029358;28;19935;-60
2023/11/14 16:35:28;;;;;;;;;;;;;;;;;;5030238;28;20281;-59
2023/11/14 16:37:55;;;;;;;;;;;;;;;;;;5033435;28;19931;-58
2023/11/14 16:40:23;;;;;;;;;;;;;;;;;;5029351;28;20019;-60
2023/11/14 16:42:50;;;;;;;;;;;;;;;;;;5020769;28;19974;-59
2023/11/14 16:45:18;;;;;;;;;;;;;;;;;;5032907;28;19921;-59
2023/11/14 16:47:46;;;;;;;;;;;;;;;;;;5026498;28;19927;-62